createdAt,value
2022-09-05T00:00:14.629Z,6.17
2022-09-05T00:02:55.615Z,5.93
2022-09-05T00:05:41.301Z,5.50
2022-09-05T00:08:27.660Z,6.30
2022-09-05T00:11:42.899Z,6.20
2022-09-05T00:15:14.850Z,6.50
2022-09-05T00:17:27.864Z,6.60
2022-09-05T00:24:24.770Z,6.73
2022-09-05T00:24:25.585Z,6.63
2022-09-05T00:27:04.000Z,6.77
2022-09-05T00:33:16.791Z,8.43
2022-09-05T00:36:08.287Z,7.17
2022-09-05T00:38:38.550Z,7.97
2022-09-05T00:41:09.578Z,8.00
2022-09-05T00:43:42.782Z,7.60
2022-09-05T00:46:32.155Z,8.60
2022-09-05T00:49:23.917Z,7.27
2022-09-05T00:52:00.298Z,6.87
2022-09-05T00:55:00.245Z,8.00
2022-09-05T00:58:06.577Z,8.10
2022-09-05T01:00:33.240Z,6.70
2022-09-05T01:03:26.989Z,8.20
2022-09-05T01:06:29.357Z,7.00
2022-09-05T01:09:15.059Z,7.50
2022-09-05T01:12:20.122Z,7.40
2022-09-05T01:15:02.127Z,7.70
2022-09-05T01:18:04.765Z,8.60
2022-09-05T01:20:49.183Z,7.57
2022-09-05T01:23:44.523Z,7.87
2022-09-05T01:26:11.137Z,8.20
2022-09-05T01:29:18.301Z,7.77
2022-09-05T01:31:58.652Z,7.90
2022-09-05T01:35:17.819Z,7.40
2022-09-05T01:37:53.256Z,7.50
2022-09-05T01:40:38.415Z,7.20
2022-09-05T01:43:34.026Z,7.33
2022-09-05T01:46:22.379Z,7.60
2022-09-05T01:48:57.892Z,8.13
2022-09-05T01:51:46.169Z,8.50
2022-09-05T01:54:26.370Z,7.43
2022-09-05T01:57:21.376Z,7.80
2022-09-05T02:00:04.146Z,7.20
2022-09-05T02:02:48.842Z,7.50
2022-09-05T02:05:20.768Z,7.67
2022-09-05T02:08:27.715Z,7.70
2022-09-05T02:11:10.629Z,7.77
2022-09-05T02:13:38.182Z,8.90
2022-09-05T02:16:05.212Z,8.30
2022-09-05T02:18:59.065Z,7.20
2022-09-05T02:21:56.597Z,7.53
2022-09-05T02:24:32.747Z,7.40
2022-09-05T02:28:03.803Z,7.90
2022-09-05T02:30:21.857Z,8.07
2022-09-05T02:33:05.926Z,8.43
2022-09-05T02:35:35.601Z,8.37
2022-09-05T02:41:01.166Z,9.57
2022-09-05T02:45:09.054Z,8.50
2022-09-05T02:45:11.754Z,8.60
2022-09-05T02:47:15.253Z,8.07
2022-09-05T02:52:03.879Z,7.73
2022-09-05T02:57:24.058Z,8.23
2022-09-05T02:57:38.792Z,7.83
2022-09-05T02:59:09.219Z,8.50
2022-09-05T03:01:56.420Z,7.63
2022-09-05T03:04:36.077Z,8.43
2022-09-05T03:07:26.911Z,8.57
2022-09-05T03:10:06.154Z,8.43
2022-09-05T03:12:54.484Z,8.43
2022-09-05T03:15:39.906Z,8.63
2022-09-05T03:18:34.106Z,8.00
2022-09-05T03:21:38.262Z,8.90
2022-09-05T03:24:32.714Z,8.50
2022-09-05T03:27:36.488Z,8.20
2022-09-05T03:30:21.552Z,8.20
2022-09-05T03:33:12.812Z,8.90
2022-09-05T03:36:13.763Z,8.23
2022-09-05T03:39:20.357Z,8.20
2022-09-05T03:41:56.706Z,8.83
2022-09-05T03:44:42.176Z,8.50
2022-09-05T03:47:53.817Z,8.70
2022-09-05T03:57:06.447Z,7.90
2022-09-05T03:57:22.568Z,8.67
2022-09-05T03:57:42.758Z,8.77
2022-09-05T04:00:27.430Z,8.37
2022-09-05T04:08:15.309Z,7.87
2022-09-05T04:08:16.719Z,8.27
2022-09-05T04:08:46.185Z,8.73
2022-09-05T04:11:25.162Z,8.20
2022-09-05T04:13:58.277Z,8.17
2022-09-05T04:16:27.097Z,9.00
2022-09-05T04:18:55.167Z,8.53
2022-09-05T04:21:29.555Z,9.27
2022-09-05T04:24:02.352Z,8.80
2022-09-05T04:27:07.796Z,8.00
2022-09-05T04:29:57.950Z,8.70
2022-09-05T04:32:24.618Z,8.30
2022-09-05T04:35:18.375Z,8.20
2022-09-05T04:37:55.199Z,7.97
2022-09-05T04:40:40.457Z,8.87
2022-09-05T04:43:13.290Z,8.40
2022-09-05T04:45:56.677Z,8.53
2022-09-05T04:48:37.079Z,7.97
2022-09-05T04:51:13.309Z,8.40
2022-09-05T04:53:49.198Z,8.73
2022-09-05T04:56:21.484Z,8.90
2022-09-05T05:01:00.327Z,7.93
2022-09-05T05:06:11.231Z,7.93
2022-09-05T05:06:19.104Z,8.73
2022-09-05T05:07:48.856Z,8.53
2022-09-05T05:11:06.134Z,8.83
2022-09-05T05:18:03.730Z,8.87
2022-09-05T05:18:06.722Z,8.80
2022-09-05T05:19:21.918Z,7.60
2022-09-05T05:21:56.329Z,9.20
2022-09-05T05:24:52.530Z,8.77
2022-09-05T05:27:27.991Z,9.13
2022-09-05T05:30:28.236Z,8.27
2022-09-05T05:32:55.857Z,8.83
2022-09-05T05:35:31.502Z,9.63
2022-09-05T05:38:25.081Z,9.00
2022-09-05T05:41:01.017Z,9.20
2022-09-05T05:43:40.833Z,9.53
2022-09-05T05:46:24.807Z,9.17
2022-09-05T05:48:57.223Z,9.07
2022-09-05T05:52:01.655Z,9.00
2022-09-05T05:54:40.427Z,9.47
2022-09-05T05:57:42.873Z,10.03
2022-09-05T06:00:24.553Z,8.83
2022-09-05T06:03:26.888Z,9.50
2022-09-05T06:06:31.166Z,10.17
2022-09-05T06:13:32.923Z,9.03
2022-09-05T06:15:01.922Z,9.57
2022-09-05T06:15:40.582Z,9.83
2022-09-05T06:18:29.242Z,9.77
2022-09-05T06:22:07.167Z,9.40
2022-09-05T06:24:07.223Z,10.37
2022-09-05T06:26:59.027Z,9.93
2022-09-05T06:29:49.762Z,10.07
2022-09-05T06:32:58.425Z,9.80
2022-09-05T06:35:46.654Z,10.10
2022-09-05T06:38:27.403Z,10.30
2022-09-05T06:41:18.037Z,10.60
2022-09-05T06:44:31.184Z,9.10
2022-09-05T06:47:24.091Z,10.03
2022-09-05T06:50:26.972Z,9.80
2022-09-05T06:53:29.988Z,8.63
2022-09-05T06:56:07.211Z,8.80
2022-09-05T06:59:20.664Z,7.03
2022-09-05T07:02:01.100Z,7.20
2022-09-05T07:05:23.227Z,6.37
2022-09-05T07:07:45.934Z,5.13
2022-09-05T07:10:39.622Z,4.60
2022-09-05T07:13:33.437Z,4.37
2022-09-05T07:16:17.186Z,4.53
2022-09-05T07:19:33.150Z,4.77
2022-09-05T07:22:07.363Z,4.30
2022-09-05T07:24:55.757Z,5.40
2022-09-05T07:27:29.774Z,5.00
2022-09-05T07:30:00.977Z,4.70
2022-09-05T07:32:33.150Z,4.50
2022-09-05T07:35:04.235Z,4.23
2022-09-05T07:37:40.964Z,4.17
2022-09-05T07:40:25.328Z,4.10
2022-09-05T07:43:09.780Z,3.90
2022-09-05T07:45:52.322Z,4.20
2022-09-05T07:48:34.321Z,4.33
2022-09-05T07:55:27.546Z,3.93
2022-09-05T07:57:00.664Z,4.10
2022-09-05T08:00:01.834Z,3.87
2022-09-05T08:02:28.581Z,3.87
2022-09-05T08:05:03.065Z,4.30
2022-09-05T08:07:49.804Z,4.27
2022-09-05T08:10:35.835Z,4.30
2022-09-05T08:13:23.724Z,3.47
2022-09-05T08:16:10.379Z,3.97
2022-09-05T08:19:18.582Z,3.53
2022-09-05T08:21:49.777Z,3.67
2022-09-05T08:24:27.116Z,3.80
2022-09-05T08:27:17.046Z,3.67
2022-09-05T08:29:58.945Z,3.57
2022-09-05T08:32:42.148Z,4.37
2022-09-05T08:35:43.060Z,3.67
2022-09-05T08:38:13.434Z,4.30
2022-09-05T08:40:50.653Z,3.37
2022-09-05T08:46:39.154Z,3.73
2022-09-05T08:46:49.571Z,3.40
2022-09-05T08:49:38.602Z,3.50
2022-09-05T08:52:33.122Z,3.27
2022-09-05T08:55:24.057Z,3.33
2022-09-05T08:58:07.557Z,3.33
2022-09-05T09:00:44.310Z,3.43
2022-09-05T09:03:26.462Z,3.43
2022-09-05T09:06:13.501Z,3.17
2022-09-05T09:09:05.179Z,3.00
2022-09-05T09:11:34.108Z,2.70
2022-09-05T09:14:30.584Z,2.53
2022-09-05T09:17:32.873Z,2.53
2022-09-05T09:20:27.126Z,3.00
2022-09-05T09:23:34.257Z,3.10
2022-09-05T09:26:08.247Z,2.80
2022-09-05T09:28:49.556Z,3.00
2022-09-05T09:31:39.221Z,2.87
2022-09-05T09:34:27.012Z,3.00
2022-09-05T09:37:08.821Z,2.83
2022-09-05T09:40:05.817Z,2.10
2022-09-05T09:42:55.801Z,2.67
2022-09-05T09:45:34.656Z,2.77
2022-09-05T09:48:26.098Z,2.53
2022-09-05T09:51:13.194Z,2.43
2022-09-05T09:53:57.814Z,2.80
2022-09-05T09:57:11.130Z,2.60
2022-09-05T10:00:08.275Z,2.40
2022-09-05T10:07:25.380Z,2.50
2022-09-05T10:10:43.514Z,2.58
2022-09-05T10:10:55.285Z,2.42
2022-09-05T10:12:39.409Z,2.53
2022-09-05T10:15:32.459Z,2.60
2022-09-05T10:18:24.353Z,2.30
2022-09-05T10:21:17.580Z,2.65
2022-09-05T10:23:53.272Z,2.28
2022-09-05T10:26:51.347Z,2.35
2022-09-05T10:29:42.518Z,2.60
2022-09-05T10:35:04.610Z,2.60
2022-09-05T10:35:24.262Z,2.10
2022-09-05T10:38:06.333Z,1.90
2022-09-05T10:41:06.665Z,2.05
2022-09-05T10:43:30.148Z,1.80
2022-09-05T10:45:56.855Z,1.55
2022-09-05T10:48:53.127Z,1.55
2022-09-05T10:51:28.309Z,1.60
2022-09-05T10:54:11.717Z,1.70
2022-09-05T10:56:53.917Z,2.03
2022-09-05T11:02:19.846Z,2.25
2022-09-05T11:02:36.766Z,1.90
2022-09-05T11:05:26.852Z,2.17
2022-09-05T11:08:01.677Z,2.05
2022-09-05T11:10:44.195Z,1.90
2022-09-05T11:13:25.330Z,2.17
2022-09-05T11:16:26.145Z,2.13
2022-09-05T11:18:57.319Z,2.28
2022-09-05T11:21:27.169Z,1.95
2022-09-05T11:24:02.153Z,1.98
2022-09-05T11:26:44.508Z,2.15
2022-09-05T11:29:22.961Z,1.75
2022-09-05T11:36:06.841Z,2.33
2022-09-05T11:39:49.070Z,2.13
2022-09-05T11:40:02.338Z,2.10
2022-09-05T11:41:20.485Z,1.90
2022-09-05T11:44:00.990Z,2.05
2022-09-05T11:46:52.389Z,1.58
2022-09-05T11:49:51.432Z,2.13
2022-09-05T11:53:05.772Z,1.92
2022-09-05T11:55:35.719Z,1.95
2022-09-05T12:01:44.270Z,1.80
2022-09-05T12:04:31.514Z,1.92
2022-09-05T12:07:29.815Z,1.90
2022-09-05T12:10:09.849Z,2.10
2022-09-05T12:13:32.141Z,2.00
2022-09-05T12:16:08.142Z,1.63
2022-09-05T12:18:56.762Z,1.83
2022-09-05T12:21:44.661Z,1.92
2022-09-05T12:25:15.848Z,2.05
2022-09-05T12:27:41.242Z,2.40
2022-09-05T12:30:09.924Z,1.50
2022-09-05T12:36:01.639Z,1.70
2022-09-05T12:40:28.646Z,1.88
2022-09-05T12:40:57.647Z,1.70
2022-09-05T12:41:32.787Z,2.00
2022-09-05T12:43:44.954Z,2.00
2022-09-05T12:46:14.393Z,1.73
2022-09-05T12:49:07.278Z,1.80
2022-09-05T12:51:47.030Z,1.75
2022-09-05T12:54:33.452Z,2.10
2022-09-05T13:01:21.781Z,1.90
2022-09-05T13:03:07.057Z,1.92
2022-09-05T13:03:27.629Z,1.65
2022-09-05T13:05:59.044Z,2.05
2022-09-05T13:08:40.350Z,1.70
2022-09-05T13:15:02.506Z,1.92
2022-09-05T13:15:07.945Z,1.90
2022-09-05T13:16:53.785Z,1.70
2022-09-05T13:19:46.110Z,1.88
2022-09-05T13:22:16.159Z,1.73
2022-09-05T13:24:50.422Z,2.00
2022-09-05T13:27:31.649Z,1.92
2022-09-05T13:31:51.024Z,1.70
2022-09-05T13:38:10.812Z,2.03
2022-09-05T13:38:12.952Z,2.25
2022-09-05T13:39:02.275Z,1.73
2022-09-05T13:41:33.279Z,1.50
2022-09-05T13:44:25.707Z,1.85
2022-09-05T13:47:06.323Z,1.75
2022-09-05T13:50:05.062Z,1.70
2022-09-05T13:52:38.601Z,1.90
2022-09-05T13:55:20.913Z,2.00
2022-09-05T13:57:59.728Z,1.75
2022-09-05T14:00:33.894Z,1.88
2022-09-05T14:03:30.716Z,1.50
2022-09-05T14:06:47.431Z,1.75
2022-09-05T14:09:42.635Z,1.70
2022-09-05T14:12:36.985Z,1.95
2022-09-05T14:15:25.922Z,1.60
2022-09-05T14:18:22.997Z,1.95
2022-09-05T14:21:16.792Z,1.70
2022-09-05T14:24:03.134Z,1.80
2022-09-05T14:27:06.930Z,1.58
2022-09-05T14:29:47.107Z,1.98
2022-09-05T14:37:34.685Z,1.95
2022-09-05T14:37:53.120Z,1.70
2022-09-05T14:39:03.922Z,2.10
2022-09-05T14:42:01.842Z,1.70
2022-09-05T14:44:52.384Z,1.70
2022-09-05T14:47:32.307Z,1.73
2022-09-05T14:50:18.272Z,1.88
2022-09-05T14:57:23.314Z,1.60
2022-09-05T15:02:51.033Z,1.80
2022-09-05T15:02:52.606Z,1.80
2022-09-05T15:05:11.005Z,1.73
2022-09-05T15:08:01.710Z,2.15
2022-09-05T15:12:18.327Z,1.88
2022-09-05T15:13:28.778Z,1.98
2022-09-05T15:16:15.394Z,1.90
2022-09-05T15:18:48.034Z,1.77
2022-09-05T15:21:33.167Z,1.80
2022-09-05T15:24:16.873Z,2.10
2022-09-05T15:26:58.779Z,1.70
2022-09-05T15:29:35.924Z,2.00
2022-09-05T15:32:22.593Z,1.90
2022-09-05T15:34:51.218Z,1.92
2022-09-05T15:37:42.612Z,2.00
2022-09-05T15:40:22.590Z,2.20
2022-09-05T15:43:00.808Z,1.88
2022-09-05T15:45:32.895Z,2.10
2022-09-05T15:48:12.514Z,2.40
2022-09-05T15:50:45.984Z,1.83
2022-09-05T15:53:35.056Z,1.90
2022-09-05T15:56:10.801Z,1.95
2022-09-05T15:59:04.689Z,1.90
2022-09-05T16:01:59.096Z,1.63
2022-09-05T16:08:47.404Z,2.00
2022-09-05T16:10:34.320Z,1.85
2022-09-05T16:10:49.601Z,1.73
2022-09-05T16:13:17.571Z,1.90
2022-09-05T16:19:44.636Z,2.00
2022-09-05T16:23:15.702Z,2.20
2022-09-05T16:23:30.679Z,1.80
2022-09-05T16:24:58.454Z,2.42
2022-09-05T16:27:43.975Z,2.30
2022-09-05T16:30:15.465Z,2.15
2022-09-05T16:32:51.267Z,2.15
2022-09-05T16:35:18.531Z,2.20
2022-09-05T16:38:07.051Z,1.70
2022-09-05T16:40:42.687Z,2.30
2022-09-05T16:43:34.515Z,1.83
2022-09-05T16:46:21.581Z,2.33
2022-09-05T16:48:55.389Z,2.00
2022-09-05T16:51:34.770Z,2.03
2022-09-05T16:54:11.207Z,2.00
2022-09-05T16:56:55.712Z,1.90
2022-09-05T16:59:27.044Z,2.17
2022-09-05T17:02:11.433Z,2.10
2022-09-05T17:05:17.773Z,1.70
2022-09-05T17:07:56.369Z,2.00
2022-09-05T17:10:30.562Z,2.37
2022-09-05T17:12:57.548Z,2.07
2022-09-05T17:15:39.456Z,2.43
2022-09-05T17:18:25.081Z,2.77
2022-09-05T17:20:57.016Z,2.07
2022-09-05T17:27:53.888Z,2.40
2022-09-05T17:29:47.236Z,2.60
2022-09-05T17:32:49.910Z,2.10
2022-09-05T17:35:21.753Z,2.97
2022-09-05T17:38:11.611Z,2.40
2022-09-05T17:41:16.061Z,2.53
2022-09-05T17:43:47.419Z,2.70
2022-09-05T17:46:29.758Z,2.80
2022-09-05T17:49:19.077Z,2.90
2022-09-05T17:51:52.936Z,2.47
2022-09-05T17:54:28.990Z,2.80
2022-09-05T17:56:56.434Z,2.73
2022-09-05T17:59:24.869Z,2.33
2022-09-05T18:02:06.669Z,3.10
2022-09-05T18:04:50.700Z,2.47
2022-09-05T18:07:26.226Z,2.77
2022-09-05T18:10:15.454Z,2.40
2022-09-05T18:13:13.158Z,3.17
2022-09-05T18:15:38.819Z,2.80
2022-09-05T18:18:22.126Z,2.97
2022-09-05T18:21:22.053Z,2.30
2022-09-05T18:24:02.206Z,2.40
2022-09-05T18:26:39.470Z,2.70
2022-09-05T18:32:37.805Z,2.97
2022-09-05T18:35:29.298Z,2.53
2022-09-05T18:38:04.175Z,2.73
2022-09-05T18:40:55.378Z,2.60
2022-09-05T18:44:00.567Z,2.73
2022-09-05T18:46:46.045Z,2.63
2022-09-05T18:50:22.327Z,2.50
2022-09-05T18:52:28.894Z,2.50
2022-09-05T18:56:09.811Z,2.60
2022-09-05T18:58:05.383Z,2.67
2022-09-05T19:00:44.631Z,2.60
2022-09-05T19:03:26.355Z,3.50
2022-09-05T19:06:02.862Z,2.90
2022-09-05T19:08:54.020Z,3.00
2022-09-05T19:11:28.207Z,2.93
2022-09-05T19:14:25.356Z,2.73
2022-09-05T19:16:48.562Z,2.53
2022-09-05T19:19:19.398Z,2.70
2022-09-05T19:22:48.566Z,3.00
2022-09-05T19:24:47.542Z,2.70
2022-09-05T19:32:39.053Z,3.10
2022-09-05T19:36:46.483Z,3.00
2022-09-05T19:37:02.955Z,2.90
2022-09-05T19:37:03.447Z,2.80
2022-09-05T19:38:32.934Z,2.90
2022-09-05T19:47:27.074Z,3.23
2022-09-05T19:47:41.053Z,3.10
2022-09-05T19:47:50.724Z,3.10
2022-09-05T19:49:57.967Z,3.00
2022-09-05T19:52:26.515Z,3.00
2022-09-05T19:54:55.979Z,3.00
2022-09-05T19:57:25.365Z,2.97
2022-09-05T19:59:54.575Z,3.20
2022-09-05T20:02:33.051Z,3.20
2022-09-05T20:05:02.650Z,3.20
2022-09-05T20:07:32.350Z,3.10
2022-09-05T20:10:02.987Z,3.17
2022-09-05T20:12:31.012Z,3.30
2022-09-05T20:15:17.807Z,2.83
2022-09-05T20:17:45.953Z,3.57
2022-09-05T20:20:16.779Z,3.20
2022-09-05T20:22:50.774Z,3.30
2022-09-05T20:25:40.762Z,3.20
2022-09-05T20:28:14.965Z,3.07
2022-09-05T20:30:45.087Z,3.13
2022-09-05T20:33:40.502Z,3.17
2022-09-05T20:43:09.198Z,2.60
2022-09-05T20:43:23.649Z,3.20
2022-09-05T20:43:24.179Z,3.30
2022-09-05T20:44:41.721Z,3.40
2022-09-05T20:54:06.844Z,3.10
2022-09-05T20:54:16.038Z,3.30
2022-09-05T20:54:31.037Z,3.10
2022-09-05T20:56:27.932Z,3.03
2022-09-05T20:58:58.516Z,3.40
2022-09-05T21:01:26.953Z,3.40
2022-09-05T21:04:02.068Z,3.27
2022-09-05T21:06:35.500Z,4.23
2022-09-05T21:09:24.486Z,3.50
2022-09-05T21:11:51.661Z,3.30
2022-09-05T21:14:20.288Z,3.37
2022-09-05T21:16:55.457Z,3.80
2022-09-05T21:19:29.775Z,3.70
2022-09-05T21:22:09.249Z,3.67
2022-09-05T21:24:36.173Z,3.90
2022-09-05T21:27:23.060Z,3.70
2022-09-05T21:29:58.762Z,3.30
2022-09-05T21:32:30.252Z,3.57
2022-09-05T21:35:15.450Z,3.80
2022-09-05T21:37:53.540Z,3.90
2022-09-05T21:40:21.103Z,3.70
2022-09-05T21:47:34.257Z,3.50
2022-09-05T21:47:40.489Z,3.87
2022-09-05T21:48:24.288Z,3.47
2022-09-05T21:50:53.581Z,3.93
2022-09-05T21:56:41.539Z,3.47
2022-09-05T21:59:32.837Z,3.00
2022-09-05T22:02:08.240Z,3.70
2022-09-05T22:04:41.304Z,3.70
2022-09-05T22:07:15.614Z,3.77
2022-09-05T22:09:42.433Z,3.97
2022-09-05T22:12:14.556Z,3.73
2022-09-05T22:14:56.856Z,4.00
2022-09-05T22:17:39.120Z,3.53
2022-09-05T22:20:08.587Z,3.60
2022-09-05T22:22:37.987Z,3.57
2022-09-05T22:25:21.136Z,4.00
2022-09-05T22:28:00.700Z,4.20
2022-09-05T22:30:28.295Z,4.20
2022-09-05T22:32:54.975Z,4.07
2022-09-05T22:35:28.628Z,3.97
2022-09-05T22:38:10.929Z,3.80
2022-09-05T22:40:40.611Z,3.47
2022-09-05T22:43:09.679Z,4.43
2022-09-05T22:45:38.385Z,3.97
2022-09-05T22:48:13.436Z,3.97
2022-09-05T22:50:41.833Z,4.17
2022-09-05T22:53:09.707Z,3.70
2022-09-05T22:55:38.551Z,4.83
2022-09-05T22:58:07.531Z,3.83
2022-09-05T23:00:34.830Z,4.10
2022-09-05T23:03:03.327Z,4.03
2022-09-05T23:05:30.909Z,4.07
2022-09-05T23:07:58.450Z,4.80
2022-09-05T23:10:26.699Z,4.10
2022-09-05T23:12:53.983Z,3.97
2022-09-05T23:15:20.858Z,4.43
2022-09-05T23:17:58.792Z,4.60
2022-09-05T23:20:29.163Z,3.80
2022-09-05T23:22:56.651Z,3.60
2022-09-05T23:25:23.974Z,3.70
2022-09-05T23:27:51.617Z,3.97
2022-09-05T23:30:18.563Z,3.20
2022-09-05T23:32:46.903Z,3.90
2022-09-05T23:35:14.621Z,3.77
2022-09-05T23:37:43.812Z,3.60
2022-09-05T23:40:13.015Z,3.80
2022-09-05T23:42:40.793Z,3.70
2022-09-05T23:45:09.152Z,4.00
2022-09-05T23:47:36.489Z,3.90
2022-09-05T23:50:03.746Z,3.20
2022-09-05T23:52:30.629Z,2.80
2022-09-05T23:54:57.246Z,3.50
2022-09-05T23:57:23.965Z,3.90
2022-09-05T23:59:52.394Z,3.87
